Time;durP1;ratioP1;P1;durP2;ratioP2;P2;SDS_P1;SDS_P2;PMS_P1;PMS_P2;Temp;Humidity;BMP_temperature;BMP_pressure;BME280_temperature;BME280_humidity;BME280_pressure;Samples;Min_cycle;Max_cycle;Signal;HPM_P1;HPM_P2
2021/08/29 00:00:43;;;;;;;;;;;;;;;15.11;63.35;99846.41;4846004;29;19924;-91
2021/08/29 00:03:09;;;;;;;;;;;;;;;15.02;63.67;99845.63;4842756;29;19925;-91
2021/08/29 00:05:34;;;;;;;;;;;;;;;15.03;63.91;99839.00;4813140;29;19932;-91
2021/08/29 00:08:00;;;;;;;;;;;;;;;15.02;63.82;99846.44;4826688;29;20014;-92
2021/08/29 00:10:27;;;;;;;;;;;;;;;15.03;63.43;99837.06;4834599;29;19925;-93
2021/08/29 00:12:53;;;;;;;;;;;;;;;15.01;63.49;99833.03;4843465;29;19931;-91
2021/08/29 00:15:20;;;;;;;;;;;;;;;15.05;63.50;99839.47;4843912;29;20329;-92
2021/08/29 00:17:45;;;;;;;;;;;;;;;15.03;63.37;99839.81;4815082;29;19925;-92
2021/08/29 00:20:11;;;;;;;;;;;;;;;15.04;63.69;99840.63;4848502;29;19932;-93
2021/08/29 00:22:37;;;;;;;;;;;;;;;15.06;63.63;99832.03;4831797;29;19967;-94
2021/08/29 00:25:03;;;;;;;;;;;;;;;15.06;63.73;99830.06;4847610;29;19931;-92
2021/08/29 00:27:29;;;;;;;;;;;;;;;15.01;64.06;99828.31;4847965;29;19950;-92
2021/08/29 00:29:59;;;;;;;;;;;;;;;14.95;64.32;99820.56;4828005;29;19984;-91
2021/08/29 00:32:25;;;;;;;;;;;;;;;14.91;64.33;99811.38;4829860;29;19924;-91
2021/08/29 00:34:52;;;;;;;;;;;;;;;14.90;64.38;99817.97;4847357;29;19924;-94
2021/08/29 00:37:17;;;;;;;;;;;;;;;14.89;64.24;99814.44;4830827;29;19931;-95
2021/08/29 00:39:44;;;;;;;;;;;;;;;14.93;64.44;99812.66;4831734;29;19912;-91
2021/08/29 00:42:11;;;;;;;;;;;;;;;14.93;64.27;99817.31;4827886;29;19928;-91
2021/08/29 00:44:42;;;;;;;;;;;;;;;14.94;64.58;99813.47;4847060;29;19932;-92
2021/08/29 00:47:08;;;;;;;;;;;;;;;14.89;64.49;99811.69;4813297;29;19928;-93
2021/08/29 00:49:37;;;;;;;;;;;;;;;14.89;64.83;99811.69;4834565;29;19931;-91
2021/08/29 00:52:05;;;;;;;;;;;;;;;14.89;64.39;99819.94;4845894;29;19931;-96
2021/08/29 00:54:37;;;;;;;;;;;;;;;14.89;64.48;99813.63;4830451;29;19957;-91
2021/08/29 00:57:08;;;;;;;;;;;;;;;14.91;64.53;99814.13;4846033;29;19926;-92
2021/08/29 00:59:38;;;;;;;;;;;;;;;14.88;64.49;99810.06;4815666;29;19931;-95
2021/08/29 01:02:09;;;;;;;;;;;;;;;14.85;64.05;99813.47;4816072;29;19997;-91
2021/08/29 01:04:44;;;;;;;;;;;;;;;14.88;64.08;99801.00;4826991;29;19924;-92
2021/08/29 01:07:15;;;;;;;;;;;;;;;14.88;64.49;99801.81;4845917;29;19931;-91
2021/08/29 01:09:52;;;;;;;;;;;;;;;14.86;64.22;99795.00;4831471;29;19931;-90
2021/08/29 01:12:26;;;;;;;;;;;;;;;14.84;64.13;99789.84;4831119;29;19924;-91
2021/08/29 01:15:03;;;;;;;;;;;;;;;14.89;64.30;99795.16;4844515;29;19935;-91
2021/08/29 01:17:35;;;;;;;;;;;;;;;14.91;63.83;99800.34;4829975;29;19924;-93
2021/08/29 01:20:00;;;;;;;;;;;;;;;14.96;63.90;99787.19;4840262;29;19931;-91
2021/08/29 01:22:31;;;;;;;;;;;;;;;15.00;63.66;99781.84;4811907;29;20295;-92
2021/08/29 01:24:58;;;;;;;;;;;;;;;15.03;63.88;99790.25;4810769;29;20468;-92
2021/08/29 01:27:26;;;;;;;;;;;;;;;15.10;63.53;99786.16;4811813;29;19924;-91
2021/08/29 01:29:55;;;;;;;;;;;;;;;15.14;63.54;99793.44;4827511;29;19925;-92
2021/08/29 01:32:22;;;;;;;;;;;;;;;15.19;62.80;99784.97;4830852;29;19924;-92
2021/08/29 01:34:51;;;;;;;;;;;;;;;15.23;62.68;99788.69;4845847;29;20072;-92
2021/08/29 01:37:24;;;;;;;;;;;;;;;15.22;62.67;99792.56;4830574;29;19924;-95
2021/08/29 01:39:53;;;;;;;;;;;;;;;15.24;62.77;99793.06;4842844;29;19924;-92
2021/08/29 01:42:26;;;;;;;;;;;;;;;15.26;62.43;99782.53;4811501;29;19979;-91
2021/08/29 01:44:53;;;;;;;;;;;;;;;15.28;62.33;99790.44;4810885;29;20027;-92
2021/08/29 01:47:19;;;;;;;;;;;;;;;15.26;62.44;99784.44;4811199;29;19928;-90
2021/08/29 01:49:48;;;;;;;;;;;;;;;15.27;62.82;99788.84;4781414;29;19931;-91
2021/08/29 01:52:16;;;;;;;;;;;;;;;15.25;62.76;99799.38;4816251;29;20366;-93
2021/08/29 01:55:14;;;;;;;;;;;;;;;15.25;62.38;99791.13;4796503;29;19920;-95
2021/08/29 01:58:05;;;;;;;;;;;;;;;15.27;62.45;99794.34;4797793;29;19999;-91
2021/08/29 02:00:45;;;;;;;;;;;;;;;15.31;62.57;99794.50;4811428;29;20437;-92
2021/08/29 02:03:16;;;;;;;;;;;;;;;15.32;62.56;99788.63;4820140;29;19959;-91
2021/08/29 02:05:53;;;;;;;;;;;;;;;15.27;62.67;99799.84;4800591;29;20019;-92
2021/08/29 02:08:20;;;;;;;;;;;;;;;15.32;62.77;99793.34;4798120;29;19925;-91
2021/08/29 02:10:48;;;;;;;;;;;;;;;15.37;62.26;99796.72;4814629;29;19932;-92
2021/08/29 02:13:25;;;;;;;;;;;;;;;15.40;62.82;99787.78;4815426;29;19928;-92
2021/08/29 02:16:00;;;;;;;;;;;;;;;15.45;62.82;99792.28;4807237;29;19973;-95
2021/08/29 02:18:29;;;;;;;;;;;;;;;15.44;62.38;99782.41;4782214;29;19990;-92
2021/08/29 02:20:55;;;;;;;;;;;;;;;15.46;62.33;99791.13;4834787;29;19924;-91
2021/08/29 02:23:23;;;;;;;;;;;;;;;15.50;62.17;99786.59;4844645;29;20305;-92
2021/08/29 02:25:50;;;;;;;;;;;;;;;15.49;62.35;99785.75;4822398;29;19932;-96
2021/08/29 02:28:19;;;;;;;;;;;;;;;15.50;62.16;99781.09;4829549;29;19952;-91
2021/08/29 02:30:47;;;;;;;;;;;;;;;15.50;62.07;99779.13;4832950;29;19920;-91
2021/08/29 02:33:17;;;;;;;;;;;;;;;15.48;62.41;99784.16;4832537;29;19928;-92
2021/08/29 02:35:43;;;;;;;;;;;;;;;15.48;62.50;99783.34;4817913;29;19920;-92
2021/08/29 02:38:13;;;;;;;;;;;;;;;15.46;62.77;99777.38;4817287;29;19941;-94
2021/08/29 02:40:44;;;;;;;;;;;;;;;15.41;62.49;99780.34;4807834;29;19929;-90
2021/08/29 02:43:10;;;;;;;;;;;;;;;15.44;62.61;99777.72;4823725;29;19956;-94
2021/08/29 02:45:39;;;;;;;;;;;;;;;15.50;62.83;99781.88;4831208;29;19931;-94
2021/08/29 02:48:08;;;;;;;;;;;;;;;15.49;62.00;99784.97;4831566;29;20334;-91
2021/08/29 02:50:39;;;;;;;;;;;;;;;15.49;62.26;99790.47;4843523;29;19928;-92
2021/08/29 02:53:14;;;;;;;;;;;;;;;15.44;62.26;99785.19;4812009;29;19964;-92
2021/08/29 02:55:42;;;;;;;;;;;;;;;15.39;62.92;99796.38;4830241;29;19936;-95
2021/08/29 02:58:09;;;;;;;;;;;;;;;15.40;63.01;99789.75;4815940;29;19924;-90
2021/08/29 03:00:55;;;;;;;;;;;;;;;15.39;62.55;99804.63;4829326;29;19973;-95
2021/08/29 03:03:40;;;;;;;;;;;;;;;15.30;63.19;99793.69;4826474;29;19924;-94
2021/08/29 03:06:06;;;;;;;;;;;;;;;15.23;63.06;99794.22;4815304;29;19935;-94
2021/08/29 03:08:33;;;;;;;;;;;;;;;15.20;63.14;99797.63;4830169;29;19928;-94
2021/08/29 03:10:59;;;;;;;;;;;;;;;15.17;63.25;99801.03;4824806;29;20386;-93
2021/08/29 03:13:27;;;;;;;;;;;;;;;15.10;63.85;99798.00;4832660;29;20364;-91
2021/08/29 03:16:02;;;;;;;;;;;;;;;15.11;64.02;99796.84;4828654;29;19924;-92
2021/08/29 03:18:59;;;;;;;;;;;;;;;15.06;64.25;99793.47;4836420;29;19955;-90
2021/08/29 03:21:47;;;;;;;;;;;;;;;15.06;64.11;99798.97;4825751;29;19931;-92
2021/08/29 03:24:13;;;;;;;;;;;;;;;15.05;63.66;99789.91;4813418;29;20019;-92
2021/08/29 03:26:40;;;;;;;;;;;;;;;15.11;63.97;99796.84;4815014;29;19931;-91
2021/08/29 03:29:24;;;;;;;;;;;;;;;15.16;64.17;99809.63;4823855;29;19928;-94
2021/08/29 03:31:52;;;;;;;;;;;;;;;15.23;63.70;99809.91;4828558;29;19924;-91
2021/08/29 03:34:19;;;;;;;;;;;;;;;15.32;63.94;99818.94;4847210;29;19924;-92
2021/08/29 03:36:47;;;;;;;;;;;;;;;15.43;63.48;99809.16;4862670;29;20002;-92
2021/08/29 03:39:17;;;;;;;;;;;;;;;15.54;63.70;99815.09;4828003;29;19924;-91
2021/08/29 03:41:44;;;;;;;;;;;;;;;15.59;63.33;99812.13;4843834;29;19924;-92
2021/08/29 03:44:26;;;;;;;;;;;;;;;15.66;62.86;99815.22;4845802;29;19934;-94
2021/08/29 03:46:57;;;;;;;;;;;;;;;15.68;62.62;99807.41;4829149;29;19929;-94
2021/08/29 03:49:33;;;;;;;;;;;;;;;15.66;62.65;99804.19;4843616;29;20343;-90
2021/08/29 03:52:01;;;;;;;;;;;;;;;15.68;62.67;99803.84;4841465;29;19925;-93
2021/08/29 03:54:36;;;;;;;;;;;;;;;15.68;62.73;99809.34;4825296;29;19925;-91
2021/08/29 03:57:04;;;;;;;;;;;;;;;15.71;63.23;99792.94;4826770;29;20054;-93
2021/08/29 03:59:32;;;;;;;;;;;;;;;15.74;62.95;99802.50;4843416;29;20336;-92
2021/08/29 04:02:04;;;;;;;;;;;;;;;15.75;63.06;99801.34;4844662;29;19960;-92
2021/08/29 04:04:31;;;;;;;;;;;;;;;15.77;62.92;99795.53;4829298;29;19924;-95
2021/08/29 04:06:58;;;;;;;;;;;;;;;15.78;63.20;99799.88;4830976;29;19928;-93
2021/08/29 04:09:33;;;;;;;;;;;;;;;15.83;63.45;99794.19;4828434;29;19924;-95
2021/08/29 04:12:01;;;;;;;;;;;;;;;15.87;62.81;99795.13;4832974;29;19924;-92
2021/08/29 04:14:41;;;;;;;;;;;;;;;15.93;62.89;99793.78;4845301;29;19983;-91
2021/08/29 04:17:09;;;;;;;;;;;;;;;15.97;62.57;99789.19;4833856;29;19928;-96
2021/08/29 04:19:54;;;;;;;;;;;;;;;16.05;62.81;99799.31;4839080;29;19927;-92
2021/08/29 04:22:21;;;;;;;;;;;;;;;16.12;62.40;99788.56;4864484;29;19983;-94
2021/08/29 04:24:47;;;;;;;;;;;;;;;16.17;62.43;99791.13;4848000;29;20398;-92
2021/08/29 04:27:14;;;;;;;;;;;;;;;16.20;62.51;99793.19;4847393;29;19925;-92
2021/08/29 04:29:42;;;;;;;;;;;;;;;16.26;63.04;99790.22;4829022;29;19925;-92
2021/08/29 04:32:10;;;;;;;;;;;;;;;16.25;62.43;99789.41;4828720;29;20038;-92
2021/08/29 04:34:36;;;;;;;;;;;;;;;16.25;62.16;99788.59;4815240;29;19924;-92
2021/08/29 04:37:11;;;;;;;;;;;;;;;16.23;62.66;99791.72;4827080;29;20011;-93
2021/08/29 04:39:44;;;;;;;;;;;;;;;16.23;62.47;99791.72;4829727;29;19931;-93
2021/08/29 04:42:10;;;;;;;;;;;;;;;16.17;62.34;99791.13;4845236;29;19924;-92
2021/08/29 04:44:37;;;;;;;;;;;;;;;16.11;63.12;99786.94;4828676;29;20302;-91
2021/08/29 04:47:03;;;;;;;;;;;;;;;16.16;62.75;99792.28;4848282;29;19920;-94
2021/08/29 04:49:32;;;;;;;;;;;;;;;16.16;62.64;99802.50;4845347;29;19924;-92
2021/08/29 04:51:58;;;;;;;;;;;;;;;16.21;62.69;99799.50;4845471;29;19935;-92
2021/08/29 04:54:26;;;;;;;;;;;;;;;16.30;62.84;99791.97;4830277;29;19928;-92
2021/08/29 04:56:53;;;;;;;;;;;;;;;16.41;62.33;99797.84;4827344;29;19950;-91
2021/08/29 04:59:19;;;;;;;;;;;;;;;16.51;62.85;99791.91;4843011;29;19924;-93
2021/08/29 05:01:46;;;;;;;;;;;;;;;16.65;62.10;99800.72;4838610;29;19924;-91
2021/08/29 05:04:11;;;;;;;;;;;;;;;16.74;61.50;99797.81;4822970;29;19931;-90
2021/08/29 05:06:39;;;;;;;;;;;;;;;16.83;61.41;99808.81;4831229;29;19970;-90
2021/08/29 05:09:10;;;;;;;;;;;;;;;16.84;61.18;99807.66;4841733;29;19924;-88
2021/08/29 05:11:37;;;;;;;;;;;;;;;16.85;60.74;99807.34;4825649;29;19924;-91
2021/08/29 05:14:03;;;;;;;;;;;;;;;16.87;61.37;99799.50;4841864;29;19924;-93
2021/08/29 05:16:29;;;;;;;;;;;;;;;16.90;60.72;99798.00;4826332;29;19928;-93
2021/08/29 05:18:54;;;;;;;;;;;;;;;16.95;60.98;99794.19;4840178;29;19925;-94
2021/08/29 05:21:22;;;;;;;;;;;;;;;17.04;61.12;99792.94;4842945;29;20040;-94
2021/08/29 05:24:06;;;;;;;;;;;;;;;17.09;60.75;99789.16;4842627;29;19928;-92
2021/08/29 05:26:58;;;;;;;;;;;;;;;17.13;60.64;99784.56;4841398;29;19964;-93
2021/08/29 05:29:25;;;;;;;;;;;;;;;17.22;62.25;99788.00;4828221;29;19984;-92
2021/08/29 05:31:53;;;;;;;;;;;;;;;17.27;60.89;99789.72;4844548;29;19932;-93
2021/08/29 05:34:28;;;;;;;;;;;;;;;17.29;60.39;99785.47;4844584;29;19928;-89
2021/08/29 05:36:56;;;;;;;;;;;;;;;17.33;61.07;99789.16;4855322;29;19928;-89
2021/08/29 05:39:23;;;;;;;;;;;;;;;17.33;60.19;99783.63;4852101;29;19931;-89
2021/08/29 05:41:48;;;;;;;;;;;;;;;17.34;60.49;99795.47;4842009;29;19928;-82
2021/08/29 05:44:17;;;;;;;;;;;;;;;17.36;60.38;99790.41;4851332;29;19931;-90
2021/08/29 05:46:43;;;;;;;;;;;;;;;17.46;60.23;99797.44;4858042;29;19931;-83
2021/08/29 05:49:09;;;;;;;;;;;;;;;17.53;60.94;99795.69;4847341;29;19947;-80
2021/08/29 05:51:36;;;;;;;;;;;;;;;17.56;60.19;99799.72;4850033;29;21437;-89
2021/08/29 05:54:03;;;;;;;;;;;;;;;17.64;61.14;99793.25;4844031;29;19931;-88
2021/08/29 05:56:28;;;;;;;;;;;;;;;17.70;60.67;99794.63;4844945;29;19928;-84
2021/08/29 05:58:56;;;;;;;;;;;;;;;17.73;59.98;99801.41;4841014;29;19947;-80
2021/08/29 06:01:21;;;;;;;;;;;;;;;17.81;60.02;99781.13;4842455;29;20779;-81
2021/08/29 06:03:47;;;;;;;;;;;;;;;17.89;60.13;99785.75;4843741;29;19928;-87
2021/08/29 06:06:36;;;;;;;;;;;;;;;17.98;59.53;99791.09;4827815;29;19924;-80
2021/08/29 06:09:02;;;;;;;;;;;;;;;18.08;59.36;99787.88;4826124;29;19947;-80
2021/08/29 06:11:28;;;;;;;;;;;;;;;18.16;59.52;99783.34;4842184;29;19924;-81
2021/08/29 06:13:56;;;;;;;;;;;;;;;18.23;59.53;99789.06;4843346;29;19971;-80
2021/08/29 06:16:23;;;;;;;;;;;;;;;18.22;59.17;99779.16;4847151;29;19931;-81
2021/08/29 06:18:49;;;;;;;;;;;;;;;18.20;59.24;99776.72;4842982;29;20555;-82
2021/08/29 06:21:15;;;;;;;;;;;;;;;18.24;58.69;99782.34;4844153;29;19924;-89
2021/08/29 06:23:41;;;;;;;;;;;;;;;18.29;59.29;99784.88;4841548;29;19927;-80
2021/08/29 06:26:35;;;;;;;;;;;;;;;18.35;58.36;99791.78;4808132;29;19925;-80
2021/08/29 06:29:37;;;;;;;;;;;;;;;18.49;59.22;99791.38;4829000;29;19920;-87
2021/08/29 06:32:22;;;;;;;;;;;;;;;18.58;59.21;99788.44;4832565;29;19955;-81
2021/08/29 06:35:02;;;;;;;;;;;;;;;18.63;57.07;99779.84;4858570;29;19921;-90
2021/08/29 06:37:38;;;;;;;;;;;;;;;18.70;58.15;99778.06;4841879;29;19928;-81
2021/08/29 06:40:04;;;;;;;;;;;;;;;18.78;57.68;99792.94;4856819;29;19924;-89
2021/08/29 06:42:30;;;;;;;;;;;;;;;18.84;57.29;99791.53;4852850;29;19924;-87
2021/08/29 06:45:17;;;;;;;;;;;;;;;18.97;57.20;99781.97;4843689;29;20019;-88
2021/08/29 06:48:21;;;;;;;;;;;;;;;19.15;57.05;99781.59;4820552;29;19925;-82
2021/08/29 06:51:06;;;;;;;;;;;;;;;19.32;57.42;99792.28;4792400;29;19929;-84
2021/08/29 06:53:51;;;;;;;;;;;;;;;19.43;56.05;99789.75;4791657;29;19965;-84
2021/08/29 06:56:56;;;;;;;;;;;;;;;19.54;56.55;99790.03;4767601;30;20000;-80
2021/08/29 06:59:25;;;;;;;;;;;;;;;19.60;56.36;99780.25;4786738;29;20395;-83
2021/08/29 07:01:51;;;;;;;;;;;;;;;19.63;56.84;99771.19;4815797;29;19932;-88
2021/08/29 07:04:16;;;;;;;;;;;;;;;19.69;56.37;99769.78;4804785;29;19924;-80
2021/08/29 07:06:43;;;;;;;;;;;;;;;19.81;55.88;99775.19;4805666;29;19982;-89
2021/08/29 07:09:09;;;;;;;;;;;;;;;19.95;56.32;99763.59;4818531;29;19976;-80
2021/08/29 07:11:36;;;;;;;;;;;;;;;20.00;55.75;99768.03;4820647;29;20015;-84
2021/08/29 07:14:25;;;;;;;;;;;;;;;20.14;55.23;99776.66;4816352;29;19931;-90
2021/08/29 07:16:52;;;;;;;;;;;;;;;20.25;54.48;99776.88;4788420;29;19929;-91
2021/08/29 07:19:18;;;;;;;;;;;;;;;20.23;54.18;99774.47;4810899;29;19935;-79
2021/08/29 07:22:10;;;;;;;;;;;;;;;20.32;55.22;99777.00;4811531;29;20326;-83
2021/08/29 07:24:54;;;;;;;;;;;;;;;20.32;54.95;99763.94;4817221;29;19924;-89
2021/08/29 07:27:57;;;;;;;;;;;;;;;20.31;55.33;99762.34;4768391;30;19926;-81
2021/08/29 07:30:43;;;;;;;;;;;;;;;20.25;54.33;99765.78;4834785;29;19924;-88
2021/08/29 07:33:13;;;;;;;;;;;;;;;20.23;55.10;99768.09;4836917;29;19931;-87
2021/08/29 07:35:47;;;;;;;;;;;;;;;20.27;55.23;99774.56;4838130;29;19931;-87
2021/08/29 07:38:47;;;;;;;;;;;;;;;20.30;54.80;99780.16;4780298;29;19932;-85
2021/08/29 07:41:12;;;;;;;;;;;;;;;20.25;54.72;99772.13;4767564;30;19980;-83
2021/08/29 07:43:38;;;;;;;;;;;;;;;20.25;55.12;99777.69;4787125;29;19961;-80
2021/08/29 07:46:07;;;;;;;;;;;;;;;20.31;56.47;99765.09;4781373;29;20103;-83
2021/08/29 07:48:34;;;;;;;;;;;;;;;20.41;56.32;99770.06;4785583;29;19929;-83
2021/08/29 07:51:00;;;;;;;;;;;;;;;20.47;54.81;99772.53;4784970;29;19932;-79
2021/08/29 07:53:33;;;;;;;;;;;;;;;20.52;54.48;99769.47;4780826;29;19944;-87
2021/08/29 07:56:31;;;;;;;;;;;;;;;20.51;53.92;99762.31;4795914;29;20371;-82
2021/08/29 07:58:57;;;;;;;;;;;;;;;20.55;55.29;99757.63;4785152;29;19964;-81
2021/08/29 08:01:24;;;;;;;;;;;;;;;20.57;53.96;99758.88;4791914;29;19932;-81
2021/08/29 08:04:08;;;;;;;;;;;;;;;20.57;54.15;99750.53;4796059;29;20503;-80
2021/08/29 08:06:57;;;;;;;;;;;;;;;20.62;55.15;99743.88;4780328;29;19929;-87
2021/08/29 08:09:43;;;;;;;;;;;;;;;20.67;54.68;99743.56;4779038;30;20285;-86
2021/08/29 08:12:27;;;;;;;;;;;;;;;20.72;54.46;99739.66;4779809;29;19940;-87
2021/08/29 08:14:53;;;;;;;;;;;;;;;20.74;55.16;99735.34;4816769;29;20288;-82
2021/08/29 08:17:19;;;;;;;;;;;;;;;20.75;53.81;99736.94;4835626;29;19928;-89
2021/08/29 08:19:47;;;;;;;;;;;;;;;20.77;54.53;99734.63;4852169;29;19924;-87
2021/08/29 08:22:13;;;;;;;;;;;;;;;20.83;54.54;99730.34;4833707;29;19947;-87
2021/08/29 08:25:00;;;;;;;;;;;;;;;20.93;53.45;99728.13;4837598;29;19977;-91
2021/08/29 08:27:45;;;;;;;;;;;;;;;20.95;53.93;99721.00;4838615;29;19928;-88
2021/08/29 08:30:29;;;;;;;;;;;;;;;21.00;53.29;99720.69;4833604;29;20016;-93
2021/08/29 08:33:15;;;;;;;;;;;;;;;21.08;54.13;99716.03;4843280;29;19931;-90
2021/08/29 08:36:16;;;;;;;;;;;;;;;21.18;53.96;99707.06;4815429;29;19939;-90
2021/08/29 08:39:04;;;;;;;;;;;;;;;21.23;53.84;99694.81;4798539;29;19925;-86
2021/08/29 08:41:49;;;;;;;;;;;;;;;21.34;54.24;99707.72;4802591;29;19935;-96
2021/08/29 08:44:34;;;;;;;;;;;;;;;21.46;54.36;99715.03;4814997;29;19977;-85
2021/08/29 08:47:42;;;;;;;;;;;;;;;21.57;53.34;99713.19;4780776;29;19970;-88
2021/08/29 08:50:35;;;;;;;;;;;;;;;21.68;52.91;99706.97;4780232;29;19932;-93
2021/08/29 08:53:23;;;;;;;;;;;;;;;21.78;53.72;99711.84;4774646;30;20792;-86
2021/08/29 08:56:25;;;;;;;;;;;;;;;21.89;53.06;99712.81;4777439;29;20435;-89
2021/08/29 08:59:10;;;;;;;;;;;;;;;22.04;52.86;99724.88;4783280;29;19986;-88
2021/08/29 09:01:59;;;;;;;;;;;;;;;22.17;52.77;99717.91;4785244;30;20315;-90
2021/08/29 09:04:59;;;;;;;;;;;;;;;22.22;52.58;99711.22;4773593;30;20431;-86
2021/08/29 09:07:26;;;;;;;;;;;;;;;22.29;52.10;99714.06;4769614;30;19934;-80
2021/08/29 09:09:51;;;;;;;;;;;;;;;22.31;51.99;99713.66;4777724;29;19928;-94
2021/08/29 09:12:18;;;;;;;;;;;;;;;22.41;52.31;99710.19;4787892;29;19972;-85
2021/08/29 09:14:45;;;;;;;;;;;;;;;22.47;51.55;99709.44;4788116;29;19968;-84
2021/08/29 09:17:23;;;;;;;;;;;;;;;22.56;51.96;99714.72;4802910;29;19944;-84
2021/08/29 09:19:49;;;;;;;;;;;;;;;22.64;52.02;99702.44;4840826;29;20406;-85
2021/08/29 09:22:23;;;;;;;;;;;;;;;22.68;50.94;99703.28;4840475;29;20008;-87
2021/08/29 09:24:51;;;;;;;;;;;;;;;22.69;52.34;99699.31;4840876;29;20006;-83
2021/08/29 09:27:40;;;;;;;;;;;;;;;22.73;52.24;99693.75;4842532;29;19928;-89
2021/08/29 09:30:28;;;;;;;;;;;;;;;22.80;51.21;99707.75;4853172;29;19924;-85
2021/08/29 09:32:58;;;;;;;;;;;;;;;22.93;52.13;99713.84;4858379;29;20011;-85
2021/08/29 09:35:25;;;;;;;;;;;;;;;22.95;49.97;99712.28;4857885;29;20283;-85
2021/08/29 09:38:16;;;;;;;;;;;;;;;22.95;50.83;99715.06;4831628;29;19924;-88
2021/08/29 09:41:04;;;;;;;;;;;;;;;23.05;49.88;99718.34;4840071;29;20015;-85
2021/08/29 09:43:50;;;;;;;;;;;;;;;23.16;50.48;99720.00;4841124;29;20409;-86
2021/08/29 09:46:17;;;;;;;;;;;;;;;23.21;50.58;99721.59;4841326;29;19920;-86
2021/08/29 09:49:01;;;;;;;;;;;;;;;23.30;50.71;99726.84;4841251;29;19948;-86
2021/08/29 09:51:51;;;;;;;;;;;;;;;23.47;51.37;99744.91;4838560;29;19927;-85
2021/08/29 09:54:42;;;;;;;;;;;;;;;23.48;49.48;99743.69;4841789;29;19924;-84
2021/08/29 09:57:27;;;;;;;;;;;;;;;23.54;51.51;99750.50;4843804;29;20402;-83
2021/08/29 10:00:16;;;;;;;;;;;;;;;23.60;50.80;99743.38;4853293;29;19931;-83
2021/08/29 10:02:59;;;;;;;;;;;;;;;23.69;50.04;99746.66;4858435;29;20022;-86
2021/08/29 10:05:28;;;;;;;;;;;;;;;23.80;50.82;99739.09;4856620;29;20014;-84
2021/08/29 10:08:07;;;;;;;;;;;;;;;23.77;49.98;99733.50;4843025;29;20027;-84
2021/08/29 10:10:44;;;;;;;;;;;;;;;23.75;50.18;99728.34;4844300;29;19931;-83
2021/08/29 10:13:15;;;;;;;;;;;;;;;23.75;50.61;99716.38;4858054;29;19923;-87
2021/08/29 10:16:01;;;;;;;;;;;;;;;23.67;50.70;99723.88;4853216;29;20415;-87
2021/08/29 10:18:46;;;;;;;;;;;;;;;23.61;51.66;99720.66;4843970;29;19925;-83
2021/08/29 10:21:32;;;;;;;;;;;;;;;23.61;51.57;99715.09;4843867;29;19972;-84
2021/08/29 10:23:58;;;;;;;;;;;;;;;23.62;50.70;99724.25;4842783;29;19928;-85
2021/08/29 10:26:25;;;;;;;;;;;;;;;23.70;50.69;99725.09;4844565;29;19980;-83
2021/08/29 10:29:15;;;;;;;;;;;;;;;23.79;50.50;99717.19;4843918;29;20076;-85
2021/08/29 10:32:10;;;;;;;;;;;;;;;23.82;50.03;99719.19;4837683;29;19935;-85
2021/08/29 10:34:42;;;;;;;;;;;;;;;23.91;50.10;99714.84;4862048;29;19931;-84
2021/08/29 10:37:09;;;;;;;;;;;;;;;24.01;49.56;99713.28;4848284;29;19924;-83
2021/08/29 10:39:49;;;;;;;;;;;;;;;24.07;50.04;99717.28;4842988;29;20432;-85
2021/08/29 10:42:23;;;;;;;;;;;;;;;24.10;50.09;99722.06;4842851;29;20015;-88
2021/08/29 10:45:29;;;;;;;;;;;;;;;24.06;50.09;99726.03;4856501;29;20382;-83
2021/08/29 10:48:01;;;;;;;;;;;;;;;24.02;50.15;99719.66;4843146;29;19931;-86
2021/08/29 10:50:50;;;;;;;;;;;;;;;23.97;50.12;99720.81;4829079;29;20287;-82
2021/08/29 10:53:28;;;;;;;;;;;;;;;23.91;51.01;99717.63;4830789;29;19934;-86
2021/08/29 10:56:14;;;;;;;;;;;;;;;23.85;52.08;99713.63;4853028;29;19973;-85
2021/08/29 10:58:41;;;;;;;;;;;;;;;23.87;49.94;99718.78;4857095;29;19935;-80
2021/08/29 11:01:25;;;;;;;;;;;;;;;23.98;50.54;99722.44;4860379;29;19928;-79
2021/08/29 11:04:19;;;;;;;;;;;;;;;24.11;51.33;99720.88;4849955;29;19935;-80
2021/08/29 11:06:52;;;;;;;;;;;;;;;24.26;51.10;99723.72;4861919;29;20059;-88
2021/08/29 11:09:41;;;;;;;;;;;;;;;24.45;50.03;99722.59;4845337;29;19935;-89
2021/08/29 11:12:12;;;;;;;;;;;;;;;24.68;50.66;99717.41;4825239;29;19928;-89
2021/08/29 11:14:51;;;;;;;;;;;;;;;24.84;50.30;99720.63;4837440;29;19928;-89
2021/08/29 11:17:19;;;;;;;;;;;;;;;24.91;49.31;99722.59;4844337;29;19972;-88
2021/08/29 11:20:03;;;;;;;;;;;;;;;24.99;48.71;99723.38;4841771;29;19924;-87
2021/08/29 11:22:50;;;;;;;;;;;;;;;24.90;47.74;99725.78;4843801;29;20034;-88
2021/08/29 11:25:36;;;;;;;;;;;;;;;24.83;48.08;99732.19;4859722;29;19924;-87
2021/08/29 11:28:29;;;;;;;;;;;;;;;24.78;48.98;99736.19;4837062;29;19924;-87
2021/08/29 11:31:44;;;;;;;;;;;;;;;24.64;48.10;99724.22;4857186;29;19924;-88
2021/08/29 11:34:11;;;;;;;;;;;;;;;24.59;49.22;99731.78;4857998;29;19948;-87
2021/08/29 11:36:38;;;;;;;;;;;;;;;24.51;51.41;99732.19;4851677;29;19972;-88
2021/08/29 11:39:51;;;;;;;;;;;;;;;24.49;50.59;99731.78;4844269;29;19931;-89
2021/08/29 11:42:23;;;;;;;;;;;;;;;24.46;49.42;99718.59;4789285;29;20311;-88
2021/08/29 11:44:58;;;;;;;;;;;;;;;24.50;49.69;99722.19;4787676;29;19925;-90
2021/08/29 11:47:35;;;;;;;;;;;;;;;24.64;50.33;99716.63;4788906;29;19956;-88
2021/08/29 11:50:07;;;;;;;;;;;;;;;24.74;50.05;99718.63;4803872;29;19925;-88
2021/08/29 11:52:43;;;;;;;;;;;;;;;24.84;49.43;99719.81;4770358;30;20396;-89
2021/08/29 11:55:13;;;;;;;;;;;;;;;24.90;48.43;99723.81;4771533;29;19928;-88
2021/08/29 11:57:54;;;;;;;;;;;;;;;25.20;48.19;99708.59;4785486;30;19978;-88
2021/08/29 12:00:24;;;;;;;;;;;;;;;25.48;49.27;99707.75;4755807;30;19933;-88
2021/08/29 12:03:01;;;;;;;;;;;;;;;25.63;46.83;99705.69;4770602;30;19977;-88
2021/08/29 12:05:29;;;;;;;;;;;;;;;25.67;47.33;99712.09;4785519;30;19973;-89
2021/08/29 12:08:15;;;;;;;;;;;;;;;25.54;47.67;99711.72;4776016;30;19922;-88
2021/08/29 12:11:16;;;;;;;;;;;;;;;25.61;46.55;99717.31;4714999;30;19933;-85
2021/08/29 12:14:10;;;;;;;;;;;;;;;25.71;46.56;99716.47;4776314;30;19925;-85
2021/08/29 12:16:57;;;;;;;;;;;;;;;25.77;48.08;99711.25;4830569;29;19920;-95
2021/08/29 12:19:33;;;;;;;;;;;;;;;25.70;45.96;99708.47;4857919;29;19924;-88
2021/08/29 12:22:20;;;;;;;;;;;;;;;25.63;46.79;99706.50;4827683;29;20454;-88
2021/08/29 12:24:57;;;;;;;;;;;;;;;25.72;46.85;99703.25;4828736;29;19925;-88
2021/08/29 12:27:23;;;;;;;;;;;;;;;25.77;46.74;99703.63;4842351;29;19993;-88
2021/08/29 12:29:53;;;;;;;;;;;;;;;25.92;47.87;99707.19;4858683;29;20407;-94
2021/08/29 12:32:21;;;;;;;;;;;;;;;25.99;47.78;99704.38;4843981;29;19992;-89
2021/08/29 12:34:58;;;;;;;;;;;;;;;25.95;46.63;99694.38;4844068;29;19924;-96
2021/08/29 12:37:27;;;;;;;;;;;;;;;25.74;46.93;99709.25;4842253;29;19925;-87
2021/08/29 12:40:00;;;;;;;;;;;;;;;25.62;47.41;99716.09;4841475;29;19924;-86
2021/08/29 12:42:27;;;;;;;;;;;;;;;25.53;47.95;99710.94;4842197;29;20438;-87
2021/08/29 12:45:01;;;;;;;;;;;;;;;25.45;49.05;99712.16;4856330;29;19982;-88
2021/08/29 12:47:29;;;;;;;;;;;;;;;25.43;49.42;99713.75;4858127;29;19928;-95
2021/08/29 12:49:55;;;;;;;;;;;;;;;25.42;48.69;99704.56;4842334;29;19924;-94
2021/08/29 12:52:26;;;;;;;;;;;;;;;25.42;49.95;99704.56;4841676;29;19930;-90
2021/08/29 12:54:53;;;;;;;;;;;;;;;25.45;48.47;99708.56;4842598;29;19924;-84
2021/08/29 12:57:20;;;;;;;;;;;;;;;25.48;49.68;99710.53;4842239;29;19935;-89
2021/08/29 12:59:50;;;;;;;;;;;;;;;25.46;49.54;99708.16;4868769;29;20081;-89
2021/08/29 13:02:17;;;;;;;;;;;;;;;25.55;48.64;99713.31;4858960;29;20345;-89
2021/08/29 13:04:49;;;;;;;;;;;;;;;25.58;49.50;99692.91;4859128;29;19924;-88
2021/08/29 13:07:15;;;;;;;;;;;;;;;25.67;48.55;99693.28;4843726;29;19930;-88
2021/08/29 13:09:41;;;;;;;;;;;;;;;25.62;48.92;99690.88;4846802;29;19924;-88
2021/08/29 13:12:20;;;;;;;;;;;;;;;25.63;49.79;99683.28;4842146;29;20023;-90
2021/08/29 13:14:47;;;;;;;;;;;;;;;25.58;50.18;99684.50;4854324;29;19931;-82
2021/08/29 13:17:14;;;;;;;;;;;;;;;25.61;48.58;99672.50;4861388;29;19997;-95
2021/08/29 13:19:41;;;;;;;;;;;;;;;25.63;49.07;99678.50;4853872;29;19932;-91
2021/08/29 13:22:07;;;;;;;;;;;;;;;25.59;47.86;99674.91;4843125;29;20004;-85
2021/08/29 13:24:38;;;;;;;;;;;;;;;25.56;49.39;99678.50;4841704;29;19924;-92